sensor_id;sensor_type;location;lat;lon;timestamp;pressure;altitude;pressure_sealevel;temperature;humidity
65227;BME280;51805;49.012;12.104;2023-09-19T00:01:30;97434.75;;;23.12;56.27
65227;BME280;51805;49.012;12.104;2023-09-19T00:03:56;97440.19;;;23.12;56.18
65227;BME280;51805;49.012;12.104;2023-09-19T00:06:21;97442.88;;;23.12;56.11
65227;BME280;51805;49.012;12.104;2023-09-19T00:08:46;97436.94;;;23.10;56.16
65227;BME280;51805;49.012;12.104;2023-09-19T00:11:12;97424.50;;;23.09;56.17
65227;BME280;51805;49.012;12.104;2023-09-19T00:13:37;97425.81;;;23.11;56.04
65227;BME280;51805;49.012;12.104;2023-09-19T00:16:09;97436.94;;;23.10;56.03
65227;BME280;51805;49.012;12.104;2023-09-19T00:18:34;97434.25;;;23.10;56.02
65227;BME280;51805;49.012;12.104;2023-09-19T00:20:59;97435.06;;;23.10;56.03
65227;BME280;51805;49.012;12.104;2023-09-19T00:23:25;97431.53;;;23.10;55.96
65227;BME280;51805;49.012;12.104;2023-09-19T00:25:50;97435.84;;;23.11;55.89
65227;BME280;51805;49.012;12.104;2023-09-19T00:28:16;97434.00;;;23.06;55.98
65227;BME280;51805;49.012;12.104;2023-09-19T00:30:45;97432.41;;;23.05;55.92
65227;BME280;51805;49.012;12.104;2023-09-19T00:33:11;97442.66;;;23.08;55.96
65227;BME280;51805;49.012;12.104;2023-09-19T00:35:36;97434.84;;;23.07;55.98
65227;BME280;51805;49.012;12.104;2023-09-19T00:38:02;97434.00;;;23.06;55.62
65227;BME280;51805;49.012;12.104;2023-09-19T00:40:27;97428.28;;;23.08;55.82
65227;BME280;51805;49.012;12.104;2023-09-19T00:42:57;97433.72;;;23.08;55.78
65227;BME280;51805;49.012;12.104;2023-09-19T00:45:23;97432.13;;;23.07;55.76
65227;BME280;51805;49.012;12.104;2023-09-19T00:47:49;97428.59;;;23.06;55.73
65227;BME280;51805;49.012;12.104;2023-09-19T00:50:21;97438.66;;;23.06;55.76
65227;BME280;51805;49.012;12.104;2023-09-19T00:52:48;97435.66;;;23.07;55.72
65227;BME280;51805;49.012;12.104;2023-09-19T00:55:14;97436.44;;;23.08;55.92
65227;BME280;51805;49.012;12.104;2023-09-19T00:57:39;97437.25;;;23.08;55.70
65227;BME280;51805;49.012;12.104;2023-09-19T01:00:07;97439.44;;;23.06;55.81
65227;BME280;51805;49.012;12.104;2023-09-19T01:02:33;97436.72;;;23.06;55.73
65227;BME280;51805;49.012;12.104;2023-09-19T01:04:59;97427.81;;;23.06;55.83
65227;BME280;51805;49.012;12.104;2023-09-19T01:07:24;97437.53;;;23.07;55.87
65227;BME280;51805;49.012;12.104;2023-09-19T01:09:50;97432.72;;;23.03;55.79
65227;BME280;51805;49.012;12.104;2023-09-19T01:12:18;97438.66;;;23.06;55.73
65227;BME280;51805;49.012;12.104;2023-09-19T01:14:55;97429.78;;;23.00;55.72
65227;BME280;51805;49.012;12.104;2023-09-19T01:17:28;97431.59;;;23.04;55.64
65227;BME280;51805;49.012;12.104;2023-09-19T01:20:19;97438.94;;;23.04;55.59
65227;BME280;51805;49.012;12.104;2023-09-19T01:25:50;97446.25;;;23.03;55.60
65227;BME280;51805;49.012;12.104;2023-09-19T01:30:51;97449.78;;;23.04;55.55
65227;BME280;51805;49.012;12.104;2023-09-19T01:33:21;97447.06;;;23.04;55.53
65227;BME280;51805;49.012;12.104;2023-09-19T01:35:46;97445.16;;;23.04;55.41
65227;BME280;51805;49.012;12.104;2023-09-19T01:38:11;97448.97;;;23.03;55.59
65227;BME280;51805;49.012;12.104;2023-09-19T01:41:00;97454.09;;;23.05;55.35
65227;BME280;51805;49.012;12.104;2023-09-19T01:43:33;97455.22;;;23.04;55.49
65227;BME280;51805;49.012;12.104;2023-09-19T01:46:13;97447.84;;;23.04;55.44
65227;BME280;51805;49.012;12.104;2023-09-19T01:54:17;97450.88;;;23.03;55.45
65227;BME280;51805;49.012;12.104;2023-09-19T01:56:59;97457.91;;;23.04;55.40
65227;BME280;51805;49.012;12.104;2023-09-19T01:59:34;97447.94;;;22.99;55.51
65227;BME280;51805;49.012;12.104;2023-09-19T02:02:00;97451.69;;;23.03;55.41
65227;BME280;51805;49.012;12.104;2023-09-19T02:04:27;97448.16;;;23.03;55.41
65227;BME280;51805;49.012;12.104;2023-09-19T02:06:53;97453.34;;;22.99;55.33
65227;BME280;51805;49.012;12.104;2023-09-19T02:09:18;97461.41;;;23.04;55.39
65227;BME280;51805;49.012;12.104;2023-09-19T02:11:43;97463.34;;;23.04;55.41
65227;BME280;51805;49.012;12.104;2023-09-19T02:14:09;97464.72;;;23.01;55.49
65227;BME280;51805;49.012;12.104;2023-09-19T02:16:34;97466.34;;;23.02;55.39
65227;BME280;51805;49.012;12.104;2023-09-19T02:19:00;97463.63;;;23.02;55.42
65227;BME280;51805;49.012;12.104;2023-09-19T02:21:26;97466.34;;;23.02;55.48
65227;BME280;51805;49.012;12.104;2023-09-19T02:23:51;97459.00;;;23.03;55.53
65227;BME280;51805;49.012;12.104;2023-09-19T02:26:16;97472.84;;;23.01;55.39
65227;BME280;51805;49.012;12.104;2023-09-19T02:28:42;97466.34;;;23.02;55.42
65227;BME280;51805;49.012;12.104;2023-09-19T02:31:07;97469.34;;;23.01;55.41
65227;BME280;51805;49.012;12.104;2023-09-19T02:33:32;97475.78;;;23.05;55.37
65227;BME280;51805;49.012;12.104;2023-09-19T02:35:58;97477.19;;;23.02;55.38
65227;BME280;51805;49.012;12.104;2023-09-19T02:38:25;97476.38;;;23.02;55.41
65227;BME280;51805;49.012;12.104;2023-09-19T02:40:50;97470.13;;;23.01;55.44
65227;BME280;51805;49.012;12.104;2023-09-19T02:43:16;97484.78;;;23.00;55.39
65227;BME280;51805;49.012;12.104;2023-09-19T02:45:41;97473.94;;;23.00;55.48
65227;BME280;51805;49.012;12.104;2023-09-19T02:48:06;97471.75;;;23.02;55.35
65227;BME280;51805;49.012;12.104;2023-09-19T02:50:31;97472.31;;;22.99;55.46
65227;BME280;51805;49.012;12.104;2023-09-19T02:52:57;97477.47;;;23.01;55.25
65227;BME280;51805;49.012;12.104;2023-09-19T02:55:22;97468.59;;;22.95;55.48
65227;BME280;51805;49.012;12.104;2023-09-19T02:57:49;97479.66;;;22.99;55.21
65227;BME280;51805;49.012;12.104;2023-09-19T03:00:17;97496.22;;;22.97;55.50
65227;BME280;51805;49.012;12.104;2023-09-19T03:02:42;97499.41;;;22.99;55.33
65227;BME280;51805;49.012;12.104;2023-09-19T03:05:08;97496.81;;;22.94;55.42
65227;BME280;51805;49.012;12.104;2023-09-19T03:07:33;97488.38;;;22.96;55.39
65227;BME280;51805;49.012;12.104;2023-09-19T03:09:59;97494.28;;;22.98;55.47
65227;BME280;51805;49.012;12.104;2023-09-19T03:12:24;97501.88;;;23.01;55.36
65227;BME280;51805;49.012;12.104;2023-09-19T03:14:50;97499.72;;;22.98;55.34
65227;BME280;51805;49.012;12.104;2023-09-19T03:17:15;97499.22;;;22.96;55.43
65227;BME280;51805;49.012;12.104;2023-09-19T03:19:40;97509.78;;;22.97;55.46
65227;BME280;51805;49.012;12.104;2023-09-19T03:22:06;97501.13;;;22.95;55.45
65227;BME280;51805;49.012;12.104;2023-09-19T03:24:31;97511.97;;;22.95;55.27
65227;BME280;51805;49.012;12.104;2023-09-19T03:26:56;97507.06;;;22.97;55.27
65227;BME280;51805;49.012;12.104;2023-09-19T03:29:22;97511.72;;;22.92;55.71
65227;BME280;51805;49.012;12.104;2023-09-19T03:31:47;97515.25;;;22.92;55.54
65227;BME280;51805;49.012;12.104;2023-09-19T03:34:12;97510.84;;;22.96;55.32
65227;BME280;51805;49.012;12.104;2023-09-19T03:36:37;97507.66;;;22.94;55.51
65227;BME280;51805;49.012;12.104;2023-09-19T03:39:03;97505.13;;;22.98;55.27
65227;BME280;51805;49.012;12.104;2023-09-19T03:41:28;97503.25;;;22.98;55.26
65227;BME280;51805;49.012;12.104;2023-09-19T03:43:53;97508.88;;;23.02;55.23
65227;BME280;51805;49.012;12.104;2023-09-19T03:46:19;97513.50;;;23.01;55.23
65227;BME280;51805;49.012;12.104;2023-09-19T03:48:44;97512.72;;;23.01;55.29
65227;BME280;51805;49.012;12.104;2023-09-19T03:51:09;97512.47;;;22.97;55.36
65227;BME280;51805;49.012;12.104;2023-09-19T03:53:34;97518.41;;;22.99;55.41
65227;BME280;51805;49.012;12.104;2023-09-19T03:56:00;97511.66;;;22.97;55.31
65227;BME280;51805;49.012;12.104;2023-09-19T03:58:25;97513.84;;;22.95;55.50
65227;BME280;51805;49.012;12.104;2023-09-19T04:00:55;97509.84;;;22.92;55.42
65227;BME280;51805;49.012;12.104;2023-09-19T04:03:20;97516.84;;;22.93;55.60
65227;BME280;51805;49.012;12.104;2023-09-19T04:05:46;97509.84;;;22.92;55.48
65227;BME280;51805;49.012;12.104;2023-09-19T04:08:12;97518.84;;;22.88;55.74
65227;BME280;51805;49.012;12.104;2023-09-19T04:10:37;97518.31;;;22.86;55.71
65227;BME280;51805;49.012;12.104;2023-09-19T04:13:03;97522.84;;;22.90;55.73
65227;BME280;51805;49.012;12.104;2023-09-19T04:15:28;97520.25;;;22.85;55.92
65227;BME280;51805;49.012;12.104;2023-09-19T04:17:53;97524.09;;;22.79;55.99
65227;BME280;51805;49.012;12.104;2023-09-19T04:20:19;97524.84;;;22.85;55.87
65227;BME280;51805;49.012;12.104;2023-09-19T04:22:45;97521.84;;;22.86;55.80
65227;BME280;51805;49.012;12.104;2023-09-19T04:25:10;97527.25;;;22.86;55.98
65227;BME280;51805;49.012;12.104;2023-09-19T04:27:35;97526.16;;;22.87;56.00
65227;BME280;51805;49.012;12.104;2023-09-19T04:30:01;97529.50;;;22.79;56.26
65227;BME280;51805;49.012;12.104;2023-09-19T04:32:28;97528.88;;;22.87;55.93
65227;BME280;51805;49.012;12.104;2023-09-19T04:34:53;97532.38;;;22.88;55.86
65227;BME280;51805;49.012;12.104;2023-09-19T04:37:19;97537.88;;;22.83;56.00
65227;BME280;51805;49.012;12.104;2023-09-19T04:39:44;97524.63;;;22.81;55.85
65227;BME280;51805;49.012;12.104;2023-09-19T04:42:09;97532.97;;;22.85;55.88
65227;BME280;51805;49.012;12.104;2023-09-19T04:44:35;97533.84;;;22.80;55.96
65227;BME280;51805;49.012;12.104;2023-09-19T04:47:00;97542.63;;;22.72;56.31
65227;BME280;51805;49.012;12.104;2023-09-19T04:49:25;97542.56;;;22.77;56.11
65227;BME280;51805;49.012;12.104;2023-09-19T04:51:50;97541.69;;;22.82;55.89
65227;BME280;51805;49.012;12.104;2023-09-19T04:54:16;97548.75;;;22.78;56.15
65227;BME280;51805;49.012;12.104;2023-09-19T04:56:41;97554.47;;;22.76;56.25
65227;BME280;51805;49.012;12.104;2023-09-19T04:59:06;97554.03;;;22.69;56.26
65227;BME280;51805;49.012;12.104;2023-09-19T05:01:32;97555.19;;;22.63;56.47
65227;BME280;51805;49.012;12.104;2023-09-19T05:03:57;97551.72;;;22.58;56.62
65227;BME280;51805;49.012;12.104;2023-09-19T05:06:22;97556.44;;;22.71;56.24
65227;BME280;51805;49.012;12.104;2023-09-19T05:08:48;97554.81;;;22.51;56.45
65227;BME280;51805;49.012;12.104;2023-09-19T05:11:14;97555.44;;;22.67;56.20
65227;BME280;51805;49.012;12.104;2023-09-19T05:13:39;97561.84;;;22.47;56.05
65227;BME280;51805;49.012;12.104;2023-09-19T05:16:04;97561.16;;;22.37;56.83
65227;BME280;51805;49.012;12.104;2023-09-19T05:18:29;97563.94;;;22.55;56.36
65227;BME280;51805;49.012;12.104;2023-09-19T05:20:55;97558.56;;;22.50;56.41
65227;BME280;51805;49.012;12.104;2023-09-19T05:23:20;97566.13;;;22.30;56.94
65227;BME280;51805;49.012;12.104;2023-09-19T05:25:46;97565.19;;;22.16;57.35
65227;BME280;51805;49.012;12.104;2023-09-19T05:28:11;97560.53;;;22.16;57.01
65227;BME280;51805;49.012;12.104;2023-09-19T05:30:37;97572.09;;;22.27;56.77
65227;BME280;51805;49.012;12.104;2023-09-19T05:33:03;97569.78;;;22.15;57.09
65227;BME280;51805;49.012;12.104;2023-09-19T05:35:28;97576.78;;;22.16;57.18
65227;BME280;51805;49.012;12.104;2023-09-19T05:37:54;97579.81;;;22.38;56.54
65227;BME280;51805;49.012;12.104;2023-09-19T05:40:19;97578.66;;;22.44;56.31
65227;BME280;51805;49.012;12.104;2023-09-19T05:42:46;97576.38;;;22.56;56.11
65227;BME280;51805;49.012;12.104;2023-09-19T05:45:13;97585.50;;;22.65;55.90
65227;BME280;51805;49.012;12.104;2023-09-19T05:47:39;97576.47;;;22.46;56.29
65227;BME280;51805;49.012;12.104;2023-09-19T05:50:05;97579.19;;;22.46;56.43
65227;BME280;51805;49.012;12.104;2023-09-19T05:52:31;97584.00;;;22.54;56.14
65227;BME280;51805;49.012;12.104;2023-09-19T05:54:56;97581.91;;;22.46;56.13
65227;BME280;51805;49.012;12.104;2023-09-19T05:57:22;97584.06;;;22.44;56.89
65227;BME280;51805;49.012;12.104;2023-09-19T05:59:47;97585.72;;;22.45;57.42
65227;BME280;51805;49.012;12.104;2023-09-19T06:02:12;97589.28;;;22.41;57.18
65227;BME280;51805;49.012;12.104;2023-09-19T06:04:39;97586.00;;;22.15;57.59
65227;BME280;51805;49.012;12.104;2023-09-19T06:07:04;97590.31;;;22.45;58.11
65227;BME280;51805;49.012;12.104;2023-09-19T06:09:29;97592.38;;;22.29;57.56
65227;BME280;51805;49.012;12.104;2023-09-19T06:11:56;97607.94;;;22.42;57.56
65227;BME280;51805;49.012;12.104;2023-09-19T06:14:21;97603.81;;;22.50;57.41
65227;BME280;51805;49.012;12.104;2023-09-19T06:16:46;97607.94;;;22.42;57.30
65227;BME280;51805;49.012;12.104;2023-09-19T06:19:12;97609.63;;;22.33;57.00
65227;BME280;51805;49.012;12.104;2023-09-19T06:21:37;97604.34;;;22.52;56.98
65227;BME280;51805;49.012;12.104;2023-09-19T06:24:03;97604.72;;;22.40;57.05
65227;BME280;51805;49.012;12.104;2023-09-19T06:26:28;97604.47;;;22.37;56.79
65227;BME280;51805;49.012;12.104;2023-09-19T06:28:54;97609.34;;;22.11;56.72
65227;BME280;51805;49.012;12.104;2023-09-19T06:31:19;97623.91;;;22.15;57.21
65227;BME280;51805;49.012;12.104;2023-09-19T06:33:45;97624.16;;;22.19;56.67
65227;BME280;51805;49.012;12.104;2023-09-19T06:36:10;97625.31;;;22.08;57.16
65227;BME280;51805;49.012;12.104;2023-09-19T06:38:36;97633.50;;;21.98;56.84
65227;BME280;51805;49.012;12.104;2023-09-19T06:41:02;97627.22;;;22.07;56.96
65227;BME280;51805;49.012;12.104;2023-09-19T06:43:27;97641.31;;;22.04;56.78
65227;BME280;51805;49.012;12.104;2023-09-19T06:45:53;97646.00;;;21.94;56.85
65227;BME280;51805;49.012;12.104;2023-09-19T06:48:18;97640.25;;;22.05;56.87
65227;BME280;51805;49.012;12.104;2023-09-19T06:50:44;97644.72;;;22.15;56.58
65227;BME280;51805;49.012;12.104;2023-09-19T06:53:09;97641.56;;;22.08;56.41
65227;BME280;51805;49.012;12.104;2023-09-19T06:55:35;97652.03;;;22.19;56.54
65227;BME280;51805;49.012;12.104;2023-09-19T06:58:00;97658.47;;;22.23;56.29
65227;BME280;51805;49.012;12.104;2023-09-19T07:00:25;97663.31;;;22.26;56.18
65227;BME280;51805;49.012;12.104;2023-09-19T07:05:20;97660.19;;;22.14;56.58
65227;BME280;51805;49.012;12.104;2023-09-19T07:07:45;97655.16;;;21.98;56.69
65227;BME280;51805;49.012;12.104;2023-09-19T07:10:11;97666.63;;;22.18;56.74
65227;BME280;51805;49.012;12.104;2023-09-19T07:12:36;97669.03;;;22.25;56.21
65227;BME280;51805;49.012;12.104;2023-09-19T07:15:02;97670.44;;;22.17;56.17
65227;BME280;51805;49.012;12.104;2023-09-19T07:17:27;97663.91;;;22.23;56.04
65227;BME280;51805;49.012;12.104;2023-09-19T07:19:53;97669.88;;;22.20;56.13
65227;BME280;51805;49.012;12.104;2023-09-19T07:22:18;97685.63;;;22.13;56.03
65227;BME280;51805;49.012;12.104;2023-09-19T07:24:45;97672.16;;;22.08;55.96
65227;BME280;51805;49.012;12.104;2023-09-19T07:27:12;97686.75;;;22.07;56.13
65227;BME280;51805;49.012;12.104;2023-09-19T07:29:37;97685.13;;;22.11;56.21
65227;BME280;51805;49.012;12.104;2023-09-19T07:32:02;97679.84;;;22.25;55.76
65227;BME280;51805;49.012;12.104;2023-09-19T07:34:28;97683.38;;;22.25;55.59
65227;BME280;51805;49.012;12.104;2023-09-19T07:36:53;97677.41;;;22.28;55.46
65227;BME280;51805;49.012;12.104;2023-09-19T07:39:20;97674.13;;;22.31;55.39
65227;BME280;51805;49.012;12.104;2023-09-19T07:41:47;97682.88;;;22.18;55.37
65227;BME280;51805;49.012;12.104;2023-09-19T07:44:12;97681.06;;;22.09;55.46
65227;BME280;51805;49.012;12.104;2023-09-19T07:46:39;97692.22;;;22.02;55.11
65227;BME280;51805;49.012;12.104;2023-09-19T07:49:06;97687.00;;;22.11;55.08
65227;BME280;51805;49.012;12.104;2023-09-19T07:51:31;97701.94;;;22.03;54.98
65227;BME280;51805;49.012;12.104;2023-09-19T07:53:57;97706.84;;;21.96;55.33
65227;BME280;51805;49.012;12.104;2023-09-19T07:56:22;97707.69;;;21.92;55.22
65227;BME280;51805;49.012;12.104;2023-09-19T07:58:47;97713.94;;;21.87;54.95
65227;BME280;51805;49.012;12.104;2023-09-19T08:01:13;97710.75;;;21.85;55.16
65227;BME280;51805;49.012;12.104;2023-09-19T08:03:38;97713.25;;;22.10;54.62
65227;BME280;51805;49.012;12.104;2023-09-19T08:06:03;97707.44;;;22.27;54.43
65227;BME280;51805;49.012;12.104;2023-09-19T08:08:29;97714.31;;;22.14;54.58
65227;BME280;51805;49.012;12.104;2023-09-19T08:10:55;97721.09;;;22.12;54.68
65227;BME280;51805;49.012;12.104;2023-09-19T08:13:20;97709.38;;;22.21;54.75
65227;BME280;51805;49.012;12.104;2023-09-19T08:15:45;97720.34;;;22.35;54.81
65227;BME280;51805;49.012;12.104;2023-09-19T08:18:11;97723.03;;;22.40;54.42
65227;BME280;51805;49.012;12.104;2023-09-19T08:20:36;97717.31;;;22.41;54.58
65227;BME280;51805;49.012;12.104;2023-09-19T08:23:01;97717.16;;;22.33;54.59
65227;BME280;51805;49.012;12.104;2023-09-19T08:25:27;97721.88;;;22.46;54.68
65227;BME280;51805;49.012;12.104;2023-09-19T08:27:52;97723.34;;;22.33;54.18
65227;BME280;51805;49.012;12.104;2023-09-19T08:30:19;97728.19;;;22.36;54.41
65227;BME280;51805;49.012;12.104;2023-09-19T08:32:44;97727.09;;;22.42;54.03
65227;BME280;51805;49.012;12.104;2023-09-19T08:35:10;97725.16;;;22.43;53.82
65227;BME280;51805;49.012;12.104;2023-09-19T08:37:35;97719.56;;;22.34;54.14
65227;BME280;51805;49.012;12.104;2023-09-19T08:40:01;97724.31;;;22.47;53.70
65227;BME280;51805;49.012;12.104;2023-09-19T08:42:27;97718.69;;;22.44;53.81
65227;BME280;51805;49.012;12.104;2023-09-19T08:44:52;97722.19;;;22.44;53.86
65227;BME280;51805;49.012;12.104;2023-09-19T08:47:25;97724.41;;;22.37;53.47
65227;BME280;51805;49.012;12.104;2023-09-19T08:49:59;97728.75;;;22.33;53.47
65227;BME280;51805;49.012;12.104;2023-09-19T08:52:29;97724.66;;;22.41;53.50
65227;BME280;51805;49.012;12.104;2023-09-19T08:54:59;97723.84;;;22.40;53.40
65227;BME280;51805;49.012;12.104;2023-09-19T08:57:29;97727.09;;;22.42;53.39
65227;BME280;51805;49.012;12.104;2023-09-19T08:59:55;97723.59;;;22.37;53.23
65227;BME280;51805;49.012;12.104;2023-09-19T09:02:22;97741.72;;;22.36;53.11
65227;BME280;51805;49.012;12.104;2023-09-19T09:04:49;97743.97;;;22.29;53.36
65227;BME280;51805;49.012;12.104;2023-09-19T09:07:16;97745.09;;;22.23;53.15
65227;BME280;51805;49.012;12.104;2023-09-19T09:09:42;97749.94;;;22.26;53.11
65227;BME280;51805;49.012;12.104;2023-09-19T09:12:09;97753.25;;;22.18;52.94
65227;BME280;51805;49.012;12.104;2023-09-19T09:14:36;97751.66;;;22.17;52.97
65227;BME280;51805;49.012;12.104;2023-09-19T09:17:01;97747.66;;;22.05;53.29
65227;BME280;51805;49.012;12.104;2023-09-19T09:19:26;97749.53;;;22.09;52.93
65227;BME280;51805;49.012;12.104;2023-09-19T09:21:52;97766.75;;;22.23;53.12
65227;BME280;51805;49.012;12.104;2023-09-19T09:24:30;97764.38;;;22.12;53.33
65227;BME280;51805;49.012;12.104;2023-09-19T09:26:56;97767.44;;;22.05;52.39
65227;BME280;51805;49.012;12.104;2023-09-19T09:29:41;97768.47;;;22.09;52.18
65227;BME280;51805;49.012;12.104;2023-09-19T09:34:42;97761.97;;;22.10;50.96
65227;BME280;51805;49.012;12.104;2023-09-19T09:37:17;97769.03;;;22.06;50.16
65227;BME280;51805;49.012;12.104;2023-09-19T09:39:49;97761.53;;;21.93;49.98
65227;BME280;51805;49.012;12.104;2023-09-19T09:42:32;97750.22;;;21.86;50.48
65227;BME280;51805;49.012;12.104;2023-09-19T09:45:23;97774.28;;;21.88;50.74
65227;BME280;51805;49.012;12.104;2023-09-19T09:47:55;97782.47;;;21.78;51.34
65227;BME280;51805;49.012;12.104;2023-09-19T09:50:47;97775.78;;;21.55;51.88
65227;BME280;51805;49.012;12.104;2023-09-19T09:53:25;97776.53;;;21.66;51.74
65227;BME280;51805;49.012;12.104;2023-09-19T09:55:58;97773.53;;;21.82;51.20
65227;BME280;51805;49.012;12.104;2023-09-19T09:58:24;97794.03;;;21.88;51.33
65227;BME280;51805;49.012;12.104;2023-09-19T10:00:59;97789.50;;;21.79;50.81
65227;BME280;51805;49.012;12.104;2023-09-19T10:03:32;97781.09;;;21.80;50.70
65227;BME280;51805;49.012;12.104;2023-09-19T10:05:58;97789.66;;;21.97;50.97
65227;BME280;51805;49.012;12.104;2023-09-19T10:08:23;97789.97;;;21.86;51.00
65227;BME280;51805;49.012;12.104;2023-09-19T10:10:49;97784.56;;;21.86;50.70
65227;BME280;51805;49.012;12.104;2023-09-19T10:13:14;97785.38;;;21.91;50.68
65227;BME280;51805;49.012;12.104;2023-09-19T10:15:50;97782.38;;;21.93;50.47
65227;BME280;51805;49.012;12.104;2023-09-19T10:18:20;97784.78;;;21.99;50.06
65227;BME280;51805;49.012;12.104;2023-09-19T10:20:45;97777.16;;;22.06;49.84
65227;BME280;51805;49.012;12.104;2023-09-19T10:23:12;97776.75;;;22.23;49.83
65227;BME280;51805;49.012;12.104;2023-09-19T10:25:39;97780.31;;;22.18;49.48
65227;BME280;51805;49.012;12.104;2023-09-19T10:28:10;97791.13;;;22.23;49.95
65227;BME280;51805;49.012;12.104;2023-09-19T10:30:37;97789.72;;;22.26;49.62
65227;BME280;51805;49.012;12.104;2023-09-19T10:33:03;97792.44;;;22.26;49.57
65227;BME280;51805;49.012;12.104;2023-09-19T10:35:29;97790.56;;;22.26;49.80
65227;BME280;51805;49.012;12.104;2023-09-19T10:37:59;97792.16;;;22.27;49.76
65227;BME280;51805;49.012;12.104;2023-09-19T10:40:27;97793.47;;;22.35;49.62
65227;BME280;51805;49.012;12.104;2023-09-19T10:42:53;97792.09;;;22.37;49.58
65227;BME280;51805;49.012;12.104;2023-09-19T10:45:19;97791.94;;;22.24;49.53
65227;BME280;51805;49.012;12.104;2023-09-19T10:47:45;97793.81;;;22.28;49.67
65227;BME280;51805;49.012;12.104;2023-09-19T10:50:19;97780.00;;;22.25;49.72
65227;BME280;51805;49.012;12.104;2023-09-19T10:52:45;97783.19;;;22.32;49.61
65227;BME280;51805;49.012;12.104;2023-09-19T10:55:16;97783.38;;;22.45;49.61
65227;BME280;51805;49.012;12.104;2023-09-19T10:57:44;97785.00;;;22.51;49.53
65227;BME280;51805;49.012;12.104;2023-09-19T11:00:10;97786.28;;;22.59;49.44
65227;BME280;51805;49.012;12.104;2023-09-19T11:02:35;97788.13;;;22.63;49.62
65227;BME280;51805;49.012;12.104;2023-09-19T11:05:12;97796.25;;;22.63;49.57
65227;BME280;51805;49.012;12.104;2023-09-19T11:07:57;97789.75;;;22.64;49.88
65227;BME280;51805;49.012;12.104;2023-09-19T11:10:43;97785.75;;;22.57;50.22
65227;BME280;51805;49.012;12.104;2023-09-19T11:13:31;97790.94;;;22.48;50.05
65227;BME280;51805;49.012;12.104;2023-09-19T11:26:42;97787.41;;;22.53;50.58
65227;BME280;51805;49.012;12.104;2023-09-19T11:29:27;97786.31;;;22.54;50.29
65227;BME280;51805;49.012;12.104;2023-09-19T11:31:52;97786.28;;;22.59;50.35
65227;BME280;51805;49.012;12.104;2023-09-19T11:37:02;97780.44;;;22.75;50.24
65227;BME280;51805;49.012;12.104;2023-09-19T11:39:27;97786.88;;;22.79;50.02
65227;BME280;51805;49.012;12.104;2023-09-19T11:41:53;97782.63;;;22.73;49.89
65227;BME280;51805;49.012;12.104;2023-09-19T11:46:53;97787.56;;;22.66;49.68
65227;BME280;51805;49.012;12.104;2023-09-19T11:49:31;97780.28;;;22.62;49.84
65227;BME280;51805;49.012;12.104;2023-09-19T11:51:57;97766.88;;;22.75;49.95
65227;BME280;51805;49.012;12.104;2023-09-19T11:54:23;97776.59;;;22.81;49.56
65227;BME280;51805;49.012;12.104;2023-09-19T11:56:50;97775.50;;;22.82;49.18
65227;BME280;51805;49.012;12.104;2023-09-19T11:59:25;97776.53;;;22.86;49.23
65227;BME280;51805;49.012;12.104;2023-09-19T12:01:53;97770.09;;;22.82;48.26
65227;BME280;51805;49.012;12.104;2023-09-19T12:04:20;97769.59;;;22.75;47.77
65227;BME280;51805;49.012;12.104;2023-09-19T12:06:56;97769.03;;;22.78;47.38
65227;BME280;51805;49.012;12.104;2023-09-19T12:09:22;97765.03;;;22.71;47.33
65227;BME280;51805;49.012;12.104;2023-09-19T12:11:47;97760.47;;;22.66;46.95
65227;BME280;51805;49.012;12.104;2023-09-19T12:14:22;97756.94;;;22.66;46.81
65227;BME280;51805;49.012;12.104;2023-09-19T12:16:54;97760.38;;;22.76;46.63
65227;BME280;51805;49.012;12.104;2023-09-19T12:19:21;97767.09;;;22.84;46.88
65227;BME280;51805;49.012;12.104;2023-09-19T12:21:54;97762.94;;;22.91;46.76
65227;BME280;51805;49.012;12.104;2023-09-19T12:24:19;97754.28;;;22.89;46.26
65227;BME280;51805;49.012;12.104;2023-09-19T12:26:45;97758.09;;;22.88;45.87
65227;BME280;51805;49.012;12.104;2023-09-19T12:29:21;97759.66;;;22.94;45.19
65227;BME280;51805;49.012;12.104;2023-09-19T12:31:51;97751.53;;;22.94;44.98
65227;BME280;51805;49.012;12.104;2023-09-19T12:34:20;97757.06;;;23.08;45.25
65227;BME280;51805;49.012;12.104;2023-09-19T12:36:46;97747.56;;;23.11;45.11
65227;BME280;51805;49.012;12.104;2023-09-19T12:39:11;97737.25;;;23.13;44.18
65227;BME280;51805;49.012;12.104;2023-09-19T12:41:37;97741.06;;;23.12;44.46
65227;BME280;51805;49.012;12.104;2023-09-19T12:44:04;97733.22;;;23.10;43.57
65227;BME280;51805;49.012;12.104;2023-09-19T12:46:29;97730.72;;;23.14;43.32
65227;BME280;51805;49.012;12.104;2023-09-19T12:49:17;97734.47;;;23.18;42.76
65227;BME280;51805;49.012;12.104;2023-09-19T12:51:43;97741.50;;;23.19;42.91
65227;BME280;51805;49.012;12.104;2023-09-19T12:54:08;97734.47;;;23.18;43.42
65227;BME280;51805;49.012;12.104;2023-09-19T12:56:41;97733.13;;;23.15;42.76
65227;BME280;51805;49.012;12.104;2023-09-19T12:59:06;97735.63;;;23.12;42.69
65227;BME280;51805;49.012;12.104;2023-09-19T13:01:32;97737.28;;;23.08;42.65
65227;BME280;51805;49.012;12.104;2023-09-19T13:04:17;97735.41;;;23.08;43.41
65227;BME280;51805;49.012;12.104;2023-09-19T13:06:42;97733.38;;;23.19;43.57
65227;BME280;51805;49.012;12.104;2023-09-19T13:09:08;97727.91;;;23.24;42.94
65227;BME280;51805;49.012;12.104;2023-09-19T13:11:36;97733.31;;;23.24;43.84
65227;BME280;51805;49.012;12.104;2023-09-19T13:22:35;97723.63;;;23.41;43.24
65227;BME280;51805;49.012;12.104;2023-09-19T13:24:50;97731.72;;;23.46;43.88
65227;BME280;51805;49.012;12.104;2023-09-19T13:27:15;97722.25;;;23.44;44.06
65227;BME280;51805;49.012;12.104;2023-09-19T13:29:41;97719.50;;;23.49;43.34
65227;BME280;51805;49.012;12.104;2023-09-19T13:32:06;97712.66;;;23.51;43.33